Terminal Aerodrome Forecast
Issued by NWS

Home | Current Version | Previous Version | Text Only | Print | Product List | Glossary On
Versions: 1 2 3 4 5 6 7 8 9 10 11 12 13 14 15 16 17
000
FTUS43 KGRR 270235 AAA
TAFBTL
TAF AMD
KBTL 270235Z 2703/2724 VRB03KT P6SM SCT040 BKN150
     FM270600 VRB03KT P6SM VCTS BKN035CB
     FM271200 VRB03KT 5SM BR OVC035
     FM271500 01006KT P6SM BKN035
     FM271800 01008KT P6SM VCSH BKN040=

USA.gov is the U.S. government's official web portal to all federal, state and local government web resources and services.